Time;durP1;ratioP1;P1;durP2;ratioP2;P2;SDS_P1;SDS_P2;PMS_P1;PMS_P2;Temp;Humidity;BMP_temperature;BMP_pressure;BME280_temperature;BME280_humidity;BME280_pressure;Samples;Min_cycle;Max_cycle;Signal;HPM_P1;HPM_P2
2022/10/10 00:00:52;;;;;;;10.83;5.50;;;;;;;11.49;100.00;98199.09;5034882;28;20227;-71
2022/10/10 00:03:19;;;;;;;7.97;5.60;;;;;;;11.46;100.00;98196.91;5034829;28;20208;-70
2022/10/10 00:05:46;;;;;;;6.63;5.30;;;;;;;11.43;100.00;98199.19;5034696;28;20228;-71
2022/10/10 00:08:13;;;;;;;6.67;5.87;;;;;;;11.46;100.00;98188.91;5035004;28;20282;-71
2022/10/10 00:10:40;;;;;;;6.93;5.20;;;;;;;11.48;100.00;98200.13;5034942;28;20229;-70
2022/10/10 00:13:08;;;;;;;8.53;5.80;;;;;;;11.49;100.00;98204.41;5034628;28;20206;-71
2022/10/10 00:15:35;;;;;;;7.07;5.47;;;;;;;11.47;100.00;98195.84;5034583;28;20212;-70
2022/10/10 00:18:04;;;;;;;8.47;5.17;;;;;;;11.47;100.00;98193.19;5034512;28;20685;-70
2022/10/10 00:20:32;;;;;;;8.70;5.50;;;;;;;11.47;100.00;98193.19;5034439;28;20222;-71
2022/10/10 00:23:00;;;;;;;7.47;5.60;;;;;;;11.50;100.00;98184.78;5034414;28;20303;-71
2022/10/10 00:25:28;;;;;;;6.80;5.40;;;;;;;11.55;100.00;98192.06;5034257;28;20316;-70
2022/10/10 00:27:55;;;;;;;6.13;5.40;;;;;;;11.59;100.00;98185.28;5035135;28;20306;-71
2022/10/10 00:30:22;;;;;;;8.37;5.00;;;;;;;11.62;100.00;98190.19;5034175;28;20230;-70
2022/10/10 00:32:50;;;;;;;6.57;4.90;;;;;;;11.61;100.00;98185.91;5034238;28;20206;-71
2022/10/10 00:35:18;;;;;;;9.27;4.97;;;;;;;11.62;100.00;98184.88;5034207;28;20629;-71
2022/10/10 00:37:45;;;;;;;5.57;4.90;;;;;;;11.60;100.00;98189.59;5034190;28;20208;-71
2022/10/10 00:40:13;;;;;;;6.70;5.10;;;;;;;11.68;100.00;98181.31;5034402;28;20609;-71
2022/10/10 00:42:40;;;;;;;8.27;5.70;;;;;;;11.65;100.00;98182.56;5034059;28;20216;-70
2022/10/10 00:45:23;;;;;;;8.30;4.90;;;;;;;11.62;100.00;98182.22;5034207;28;20203;-71
2022/10/10 00:47:52;;;;;;;8.13;5.00;;;;;;;11.64;100.00;98180.94;5034323;28;20209;-71
2022/10/10 00:50:21;;;;;;;5.57;5.07;;;;;;;11.63;100.00;98189.97;5032962;28;20224;-71
2022/10/10 00:52:48;;;;;;;5.97;5.20;;;;;;;11.61;100.00;98184.06;5034204;28;20299;-70
2022/10/10 00:55:16;;;;;;;5.87;5.10;;;;;;;11.61;100.00;98178.72;5033889;28;20227;-70
2022/10/10 00:57:43;;;;;;;7.70;5.53;;;;;;;11.64;100.00;98172.97;5034138;28;20202;-70
2022/10/10 01:00:10;;;;;;;8.00;5.40;;;;;;;11.63;100.00;98173.19;5033693;28;20227;-70
2022/10/10 01:02:37;;;;;;;8.33;5.13;;;;;;;11.65;100.00;98163.94;5034030;28;20210;-71
2022/10/10 01:05:04;;;;;;;6.20;5.60;;;;;;;11.69;100.00;98165.13;5033721;28;20678;-71
2022/10/10 01:07:31;;;;;;;7.43;5.40;;;;;;;11.70;100.00;98164.06;5033881;28;20231;-71
2022/10/10 01:10:05;;;;;;;8.43;5.40;;;;;;;11.71;100.00;98168.34;5032684;28;20227;-70
2022/10/10 01:12:40;;;;;;;7.53;5.33;;;;;;;11.68;100.00;98162.69;5033620;28;20562;-70
2022/10/10 01:15:25;;;;;;;6.93;5.37;;;;;;;11.67;100.00;98156.53;5032962;28;20288;-70
2022/10/10 01:18:01;;;;;;;7.53;5.37;;;;;;;11.67;100.00;98159.19;5033850;28;20242;-70
2022/10/10 01:20:50;;;;;;;6.03;5.43;;;;;;;11.71;100.00;98155.03;5033690;28;20233;-70
2022/10/10 01:23:56;;;;;;;7.57;5.47;;;;;;;11.72;100.00;98151.38;5032615;28;20204;-71
2022/10/10 01:26:47;;;;;;;6.17;5.50;;;;;;;11.74;100.00;98156.44;5033595;28;20232;-71
2022/10/10 01:29:18;;;;;;;6.00;5.37;;;;;;;11.73;100.00;98150.31;5033674;28;20200;-70
2022/10/10 01:31:48;;;;;;;7.53;5.80;;;;;;;11.71;100.00;98143.59;5033234;28;20223;-71
2022/10/10 01:34:22;;;;;;;5.93;5.00;;;;;;;11.70;100.00;98150.75;5033597;28;20208;-70
2022/10/10 01:37:18;;;;;;;6.47;5.80;;;;;;;11.71;100.00;98143.59;5033629;28;20187;-71
2022/10/10 01:39:59;;;;;;;6.10;5.43;;;;;;;11.76;100.00;98147.19;4979902;28;20230;-71
2022/10/10 01:42:37;;;;;;;7.57;6.17;;;;;;;11.79;100.00;98148.59;5033295;28;20655;-70
2022/10/10 01:45:04;;;;;;;7.20;5.67;;;;;;;11.79;100.00;98145.94;5033588;28;20213;-70
2022/10/10 01:47:30;;;;;;;6.50;6.00;;;;;;;11.80;100.00;98142.25;5033446;28;20224;-70
2022/10/10 01:50:03;;;;;;;8.40;6.10;;;;;;;11.81;100.00;98142.03;5033752;28;20228;-71
2022/10/10 01:52:32;;;;;;;6.50;5.80;;;;;;;11.80;100.00;98135.06;5032338;28;20199;-70
2022/10/10 01:55:36;;;;;;;8.83;6.00;;;;;;;11.81;100.00;98135.88;5033026;28;20689;-70
2022/10/10 01:58:24;;;;;;;8.57;6.47;;;;;;;11.83;100.00;98145.28;5033341;28;20208;-70
2022/10/10 02:01:08;;;;;;;8.90;6.43;;;;;;;11.83;100.00;98133.78;5033309;28;20224;-70
2022/10/10 02:03:43;;;;;;;8.03;6.00;;;;;;;11.83;100.00;98133.78;5033097;28;20652;-70
2022/10/10 02:06:31;;;;;;;6.53;5.93;;;;;;;11.80;100.00;98132.41;5032947;28;20208;-71
2022/10/10 02:09:05;;;;;;;8.37;5.83;;;;;;;11.79;100.00;98136.09;5033316;28;20207;-71
2022/10/10 02:11:38;;;;;;;7.90;6.47;;;;;;;11.75;100.00;98128.81;5033183;28;20231;-70
2022/10/10 02:14:34;;;;;;;6.90;5.60;;;;;;;11.73;100.00;98136.19;5032905;28;20204;-70
2022/10/10 02:17:02;;;;;;;9.17;6.00;;;;;;;11.74;100.00;98138.63;5031797;28;20203;-71
2022/10/10 02:19:30;;;;;;;6.53;5.77;;;;;;;11.72;100.00;98135.38;5033121;28;20203;-70
2022/10/10 02:21:57;;;;;;;5.87;5.33;;;;;;;11.68;100.00;98130.72;5032832;28;20213;-70
2022/10/10 02:24:24;;;;;;;8.63;6.00;;;;;;;11.64;100.00;98129.53;5032869;28;20690;-71
2022/10/10 02:27:01;;;;;;;6.77;5.77;;;;;;;11.60;100.00;98137.16;5035814;28;20225;-70
2022/10/10 02:29:33;;;;;;;6.93;5.67;;;;;;;11.61;100.00;98135.31;5036870;28;20192;-70
2022/10/10 02:32:09;;;;;;;10.20;6.33;;;;;;;11.59;100.00;98138.19;5035690;28;20192;-70
2022/10/10 02:34:39;;;;;;;6.97;5.80;;;;;;;11.56;100.00;98137.78;5035699;28;20195;-70
2022/10/10 02:37:12;;;;;;;7.23;5.87;;;;;;;11.52;100.00;98132.09;5036416;28;20693;-70
2022/10/10 02:39:47;;;;;;;9.63;5.77;;;;;;;11.54;100.00;98139.88;5036446;28;20224;-70
2022/10/10 02:42:18;;;;;;;7.10;6.23;;;;;;;11.51;100.00;98130.47;5036229;28;20549;-70
2022/10/10 02:44:46;;;;;;;8.20;6.90;;;;;;;11.52;100.00;98132.09;5037378;28;20192;-70
2022/10/10 02:47:12;;;;;;;8.27;6.47;;;;;;;11.54;100.00;98132.72;5036117;28;20703;-70
2022/10/10 02:49:39;;;;;;;12.60;6.60;;;;;;;11.57;100.00;98132.25;5036403;28;20569;-71
2022/10/10 02:52:07;;;;;;;9.37;6.63;;;;;;;11.59;100.00;98132.84;5036410;28;20211;-70
2022/10/10 02:54:33;;;;;;;7.67;6.90;;;;;;;11.55;100.00;98129.00;5036090;28;20687;-70
2022/10/10 02:56:59;;;;;;;8.60;6.83;;;;;;;11.53;100.00;98130.25;5036331;28;20204;-71
2022/10/10 02:59:26;;;;;;;8.63;7.17;;;;;;;11.50;100.00;98128.88;5036014;28;20210;-70
2022/10/10 03:01:52;;;;;;;7.63;6.87;;;;;;;11.47;100.00;98123.16;5036090;28;20207;-70
2022/10/10 03:04:18;;;;;;;7.23;6.13;;;;;;;11.40;100.00;98131.22;5036006;28;20207;-70
2022/10/10 03:06:46;;;;;;;9.53;6.63;;;;;;;11.38;100.00;98135.94;5035848;28;20224;-71
2022/10/10 03:09:12;;;;;;;10.50;6.97;;;;;;;11.37;100.00;98142.31;5036039;28;20556;-71
2022/10/10 03:11:39;;;;;;;7.63;6.80;;;;;;;11.32;100.00;98134.97;5035977;28;20225;-70
2022/10/10 03:14:05;;;;;;;8.77;6.50;;;;;;;11.35;100.00;98136.38;5035976;28;20202;-71
2022/10/10 03:16:31;;;;;;;9.90;7.07;;;;;;;11.36;100.00;98140.69;5035520;28;20204;-70
2022/10/10 03:18:58;;;;;;;7.87;7.17;;;;;;;11.36;100.00;98146.03;5035871;28;20207;-70
2022/10/10 03:21:24;;;;;;;10.43;7.03;;;;;;;11.37;100.00;98131.66;5035832;28;20222;-70
2022/10/10 03:23:51;;;;;;;9.50;6.53;;;;;;;11.39;100.00;98134.91;5035403;28;20210;-70
2022/10/10 03:26:17;;;;;;;7.53;6.23;;;;;;;11.37;100.00;98139.66;5035560;28;20227;-71
2022/10/10 03:28:43;;;;;;;9.43;7.20;;;;;;;11.30;100.00;98128.25;5035566;28;20217;-70
2022/10/10 03:31:10;;;;;;;7.83;7.07;;;;;;;11.27;100.00;98138.53;5035133;28;20236;-70
2022/10/10 03:33:36;;;;;;;7.40;6.73;;;;;;;11.23;100.00;98130.97;5035133;28;20698;-70
2022/10/10 03:36:03;;;;;;;8.07;7.27;;;;;;;11.27;100.00;98138.53;5035189;28;20678;-70
2022/10/10 03:38:29;;;;;;;9.97;6.60;;;;;;;11.34;100.00;98129.44;5032869;28;20198;-70
2022/10/10 03:40:56;;;;;;;8.73;7.40;;;;;;;11.27;100.00;98124.19;5034168;28;20235;-70
2022/10/10 03:43:22;;;;;;;9.60;6.80;;;;;;;11.30;100.00;98130.91;5035752;28;20210;-70
2022/10/10 03:45:49;;;;;;;8.47;6.90;;;;;;;11.30;100.00;98128.25;5035878;28;20210;-70
2022/10/10 03:48:16;;;;;;;8.47;6.90;;;;;;;11.32;100.00;98123.53;5033211;28;20232;-70
2022/10/10 03:50:42;;;;;;;10.00;7.20;;;;;;;11.34;100.00;98126.78;5035206;28;20228;-70
2022/10/10 03:53:09;;;;;;;8.30;7.40;;;;;;;11.31;100.00;98123.75;5035241;28;20284;-70
2022/10/10 03:55:35;;;;;;;8.10;6.87;;;;;;;11.33;100.00;98119.84;5034041;28;20209;-70
2022/10/10 03:58:02;;;;;;;9.83;7.50;;;;;;;11.31;100.00;98126.41;5033878;28;20663;-71
2022/10/10 04:00:28;;;;;;;8.37;6.70;;;;;;;11.30;100.00;98127.47;5034902;28;20597;-70
2022/10/10 04:02:54;;;;;;;11.17;6.87;;;;;;;11.28;100.00;98125.00;5035018;28;20210;-70
2022/10/10 04:05:21;;;;;;;11.17;7.23;;;;;;;11.32;100.00;98121.69;5032848;28;20198;-70
2022/10/10 04:07:47;;;;;;;8.00;7.20;;;;;;;11.34;100.00;98128.66;5034589;28;20229;-71
2022/10/10 04:10:14;;;;;;;8.37;7.00;;;;;;;11.36;100.00;98129.22;5032642;28;20226;-70
2022/10/10 04:12:40;;;;;;;9.87;6.77;;;;;;;11.29;100.00;98129.28;5034436;28;20211;-70
2022/10/10 04:15:07;;;;;;;8.43;7.07;;;;;;;11.31;100.00;98126.41;5035576;28;20202;-70
2022/10/10 04:17:33;;;;;;;9.13;7.00;;;;;;;11.30;100.00;98122.94;5034360;28;20202;-70
2022/10/10 04:20:00;;;;;;;9.40;6.77;;;;;;;11.34;100.00;98132.09;5033586;28;20816;-70
2022/10/10 04:22:26;;;;;;;8.60;6.83;;;;;;;11.35;100.00;98130.25;5030526;28;20207;-70
2022/10/10 04:24:52;;;;;;;8.37;7.07;;;;;;;11.27;100.00;98120.72;5033849;28;20577;-70
2022/10/10 04:27:19;;;;;;;10.37;7.27;;;;;;;11.26;100.00;98127.06;5034225;28;20273;-70
2022/10/10 04:29:45;;;;;;;10.70;7.47;;;;;;;11.24;100.00;98131.81;5034203;28;20232;-70
2022/10/10 04:32:11;;;;;;;9.17;6.73;;;;;;;11.26;100.00;98126.28;5032757;28;20206;-70
2022/10/10 04:34:38;;;;;;;10.17;7.73;;;;;;;11.22;100.00;98125.09;5033572;28;20553;-70
2022/10/10 04:37:04;;;;;;;9.80;7.53;;;;;;;11.17;100.00;98125.72;5034315;28;20205;-70
2022/10/10 04:39:31;;;;;;;9.60;7.53;;;;;;;11.14;100.00;98118.22;5033709;28;20214;-70
2022/10/10 04:41:57;;;;;;;12.13;7.77;;;;;;;11.13;100.00;98127.22;5031799;28;20218;-70
2022/10/10 04:44:23;;;;;;;10.83;7.50;;;;;;;11.13;100.00;98119.25;5031337;28;20575;-70
2022/10/10 04:46:50;;;;;;;10.80;7.43;;;;;;;11.09;100.00;98118.84;5017282;28;20224;-70
2022/10/10 04:49:16;;;;;;;11.43;7.20;;;;;;;11.07;100.00;98119.31;5032928;28;20206;-70
2022/10/10 04:51:42;;;;;;;10.63;7.30;;;;;;;11.08;100.00;98119.06;5032406;28;20233;-70
2022/10/10 04:54:09;;;;;;;9.77;7.40;;;;;;;10.99;100.00;98117.72;5031268;28;20683;-70
2022/10/10 04:56:35;;;;;;;13.27;7.80;;;;;;;10.93;100.00;98113.28;5014154;28;20204;-70
2022/10/10 04:59:02;;;;;;;10.40;7.47;;;;;;;10.93;100.00;98110.63;5015082;28;20294;-70
2022/10/10 05:01:28;;;;;;;12.20;7.10;;;;;;;10.97;100.00;98119.81;5033526;28;20237;-70
2022/10/10 05:03:55;;;;;;;11.50;7.40;;;;;;;10.95;100.00;98111.25;5033513;28;20540;-70
2022/10/10 05:06:21;;;;;;;8.60;7.23;;;;;;;11.00;100.00;98116.72;5033367;28;20206;-70
2022/10/10 05:08:47;;;;;;;11.57;7.73;;;;;;;10.99;100.00;98112.41;5033440;28;20214;-70
2022/10/10 05:11:14;;;;;;;12.53;8.17;;;;;;;11.02;100.00;98112.81;5033229;28;20234;-70
2022/10/10 05:13:40;;;;;;;9.13;6.83;;;;;;;11.02;100.00;98118.13;5033158;28;20202;-70
2022/10/10 05:16:06;;;;;;;8.90;7.50;;;;;;;11.05;100.00;98116.88;5032834;28;20558;-70
2022/10/10 05:18:35;;;;;;;9.77;7.87;;;;;;;11.02;100.00;98117.31;5033243;28;20207;-70
2022/10/10 05:21:02;;;;;;;9.50;8.00;;;;;;;11.10;100.00;98120.47;5033270;28;20231;-70
2022/10/10 05:23:28;;;;;;;11.27;7.90;;;;;;;11.08;100.00;98122.56;5031697;28;20210;-70
2022/10/10 05:25:54;;;;;;;12.37;7.90;;;;;;;11.13;100.00;98121.09;5032843;28;20544;-70
2022/10/10 05:28:21;;;;;;;11.30;8.17;;;;;;;11.14;100.00;98126.19;5033157;28;20256;-70
2022/10/10 05:30:47;;;;;;;12.97;7.60;;;;;;;11.18;100.00;98115.91;5033140;28;20226;-71
2022/10/10 05:33:13;;;;;;;11.20;7.50;;;;;;;11.18;100.00;98122.84;5032879;28;20202;-71
2022/10/10 05:35:40;;;;;;;8.47;7.40;;;;;;;11.22;100.00;98120.59;5032834;28;20205;-70
2022/10/10 05:38:07;;;;;;;10.50;7.97;;;;;;;11.22;100.00;98122.41;5032422;28;20210;-70
2022/10/10 05:40:33;;;;;;;9.23;7.13;;;;;;;11.18;100.00;98128.19;5032829;28;20609;-70
2022/10/10 05:43:00;;;;;;;9.83;8.40;;;;;;;11.22;100.00;98123.25;5032916;28;20201;-71
2022/10/10 05:45:26;;;;;;;10.53;7.63;;;;;;;11.19;100.00;98126.34;5032808;28;20202;-70
2022/10/10 05:47:52;;;;;;;9.47;7.67;;;;;;;11.16;100.00;98139.28;5032284;28;20233;-71
2022/10/10 05:50:37;;;;;;;11.90;7.93;;;;;;;11.17;100.00;98135.59;5032896;28;20232;-70
2022/10/10 05:53:05;;;;;;;9.73;7.90;;;;;;;11.14;100.00;98142.16;5033029;28;20187;-71
2022/10/10 05:55:32;;;;;;;14.93;7.90;;;;;;;11.18;100.00;98144.16;5032737;28;20736;-71
2022/10/10 05:57:58;;;;;;;13.27;7.90;;;;;;;11.23;100.00;98141.63;5032689;28;20687;-71
2022/10/10 06:00:25;;;;;;;9.50;6.67;;;;;;;11.23;100.00;98138.97;5033437;28;20222;-71
2022/10/10 06:02:51;;;;;;;9.50;7.57;;;;;;;11.28;100.00;98141.78;5036572;28;20764;-71
2022/10/10 06:05:17;;;;;;;10.20;7.60;;;;;;;11.35;100.00;98141.72;5036361;28;20549;-71
2022/10/10 06:07:44;;;;;;;9.57;7.23;;;;;;;11.41;100.00;98145.34;5036758;28;20232;-70
2022/10/10 06:10:10;;;;;;;11.40;7.17;;;;;;;11.38;100.00;98149.25;5036718;28;20222;-72
2022/10/10 06:12:37;;;;;;;8.73;7.67;;;;;;;11.41;100.00;98154.16;5036680;28;20234;-70
2022/10/10 06:15:03;;;;;;;10.00;6.70;;;;;;;11.40;100.00;98149.84;5036450;28;20199;-70
2022/10/10 06:17:30;;;;;;;10.63;7.80;;;;;;;11.43;100.00;98146.75;5036479;28;20298;-71
2022/10/10 06:19:56;;;;;;;9.73;7.40;;;;;;;11.46;100.00;98156.97;5036356;28;20727;-70
2022/10/10 06:22:23;;;;;;;7.93;7.17;;;;;;;11.45;100.00;98146.53;5036629;28;20206;-71
2022/10/10 06:24:49;;;;;;;8.20;6.93;;;;;;;11.51;100.00;98149.13;5036330;28;20211;-71
2022/10/10 06:27:16;;;;;;;9.13;7.23;;;;;;;11.54;100.00;98155.84;5036056;28;20217;-71
2022/10/10 06:29:42;;;;;;;9.97;7.20;;;;;;;11.55;100.00;98166.28;5036200;28;20209;-71
2022/10/10 06:32:08;;;;;;;9.60;7.40;;;;;;;11.59;100.00;98161.31;5036338;28;20203;-71
2022/10/10 06:34:35;;;;;;;10.77;7.10;;;;;;;11.67;100.00;98174.38;5036734;28;20210;-71
2022/10/10 06:37:01;;;;;;;7.93;6.90;;;;;;;11.69;100.00;98178.44;5036236;28;20209;-71
2022/10/10 06:39:28;;;;;;;8.20;7.40;;;;;;;11.73;100.00;98171.63;5035902;28;20216;-71
2022/10/10 06:41:54;;;;;;;12.70;7.30;;;;;;;11.70;100.00;98172.06;5035798;28;20667;-71
2022/10/10 06:44:21;;;;;;;9.00;6.60;;;;;;;11.79;100.00;98173.38;5036336;28;20207;-71
2022/10/10 06:46:47;;;;;;;11.53;7.20;;;;;;;11.79;100.00;98173.38;5035988;28;20213;-71
2022/10/10 06:49:13;;;;;;;8.23;6.53;;;;;;;11.78;100.00;98171.78;5035845;28;20206;-70
2022/10/10 06:51:40;;;;;;;8.80;6.87;;;;;;;11.78;100.00;98176.28;5035597;28;20227;-71
2022/10/10 06:54:06;;;;;;;9.93;7.40;;;;;;;11.77;100.00;98179.97;5036003;28;20208;-71
2022/10/10 06:56:32;;;;;;;10.77;7.10;;;;;;;11.78;100.00;98181.59;5035602;28;20209;-71
2022/10/10 06:58:59;;;;;;;10.90;7.23;;;;;;;11.81;100.00;98186.50;5035675;28;20705;-71
2022/10/10 07:01:26;;;;;;;8.20;6.80;;;;;;;11.84;100.00;98186.06;5035535;28;20226;-71
2022/10/10 07:03:53;;;;;;;8.70;7.50;;;;;;;11.88;100.00;98184.53;5035657;28;20675;-70
2022/10/10 07:06:20;;;;;;;9.07;7.23;;;;;;;11.93;100.00;98185.50;5036080;28;20215;-70
2022/10/10 07:08:46;;;;;;;9.77;7.30;;;;;;;12.00;100.00;98182.75;5035569;28;20229;-71
2022/10/10 07:11:13;;;;;;;12.47;7.47;;;;;;;11.91;100.00;98187.59;5035522;28;20239;-71
2022/10/10 07:13:39;;;;;;;9.93;6.73;;;;;;;11.93;100.00;98184.72;5034557;28;20208;-70
2022/10/10 07:16:07;;;;;;;9.13;7.13;;;;;;;11.99;100.00;98189.13;5035185;28;20689;-70
2022/10/10 07:18:35;;;;;;;10.10;6.93;;;;;;;12.09;100.00;98192.91;5034905;28;20213;-71
2022/10/10 07:21:02;;;;;;;8.40;7.60;;;;;;;12.12;100.00;98199.63;5035541;28;20232;-71
2022/10/10 07:23:30;;;;;;;9.20;6.90;;;;;;;12.19;100.00;98200.34;5035264;28;20212;-71
2022/10/10 07:26:05;;;;;;;9.03;7.50;;;;;;;12.18;100.00;98202.22;5035584;28;20212;-71
2022/10/10 07:28:32;;;;;;;7.63;6.50;;;;;;;12.19;100.00;98203.81;5035199;28;20241;-71
2022/10/10 07:31:05;;;;;;;10.43;7.63;;;;;;;12.24;100.00;98200.47;5034978;28;20232;-71
2022/10/10 07:33:36;;;;;;;8.83;6.43;;;;;;;12.26;100.00;98207.19;5035262;28;20654;-70
2022/10/10 07:36:03;;;;;;;9.53;6.70;;;;;;;12.35;100.00;98203.19;5035033;28;20208;-69
2022/10/10 07:38:30;;;;;;;10.53;6.80;;;;;;;12.47;100.00;98206.72;5035390;28;20201;-72
2022/10/10 07:40:56;;;;;;;12.47;6.60;;;;;;;12.48;100.00;98216.34;5034960;28;20241;-72
2022/10/10 07:43:23;;;;;;;10.13;6.37;;;;;;;12.47;100.00;98206.72;5035253;28;20213;-72
2022/10/10 07:45:49;;;;;;;11.77;7.67;;;;;;;12.43;100.00;98213.53;5034832;28;20219;-72
2022/10/10 07:48:16;;;;;;;14.07;6.97;;;;;;;12.38;100.00;98210.75;5034817;28;20585;-72
2022/10/10 07:50:44;;;;;;;10.87;7.40;;;;;;;12.47;100.00;98216.56;5035031;28;20229;-72
2022/10/10 07:53:11;;;;;;;7.60;6.90;;;;;;;12.54;100.00;98220.78;5035175;28;20266;-71
2022/10/10 07:55:39;;;;;;;9.23;6.80;;;;;;;12.66;100.00;98218.94;5034740;28;20688;-71
2022/10/10 07:58:06;;;;;;;10.43;6.77;;;;;;;12.76;100.00;98221.88;5035435;28;20232;-71
2022/10/10 08:00:34;;;;;;;9.10;6.63;;;;;;;12.78;100.00;98218.97;5034872;28;20239;-72
2022/10/10 08:03:00;;;;;;;13.27;7.77;;;;;;;12.83;100.00;98219.91;5034762;28;20205;-71
2022/10/10 08:05:27;;;;;;;8.50;7.53;;;;;;;12.88;100.00;98217.38;5035095;28;20205;-71
2022/10/10 08:07:54;;;;;;;10.23;7.03;;;;;;;12.92;100.00;98215.06;5034711;28;20253;-71
2022/10/10 08:10:20;;;;;;;9.47;6.97;;;;;;;13.00;100.00;98220.09;5034541;28;20228;-71
2022/10/10 08:12:46;;;;;;;9.67;6.93;;;;;;;13.06;100.00;98224.53;5034598;28;20206;-71
2022/10/10 08:15:13;;;;;;;8.20;7.20;;;;;;;13.17;100.00;98229.88;5035614;28;20209;-72
2022/10/10 08:17:39;;;;;;;12.30;6.87;;;;;;;13.13;100.00;98226.03;5034314;28;20215;-72
2022/10/10 08:20:06;;;;;;;9.00;7.00;;;;;;;13.19;100.00;98233.13;5034197;28;20704;-71
2022/10/10 08:22:33;;;;;;;11.13;7.17;;;;;;;13.31;100.00;98222.44;5034318;28;20213;-71
2022/10/10 08:24:59;;;;;;;11.30;7.00;;;;;;;13.40;100.00;98224.53;5034281;28;20216;-71
2022/10/10 08:27:26;;;;;;;9.87;6.73;;;;;;;13.48;100.00;98221.50;5035184;28;20229;-71
2022/10/10 08:29:52;;;;;;;10.97;6.83;;;;;;;13.54;100.00;98219.75;5033909;28;20228;-71
2022/10/10 08:32:19;;;;;;;8.07;6.60;;;;;;;13.60;100.00;98218.81;5034069;28;20688;-71
2022/10/10 08:34:47;;;;;;;8.33;6.53;;;;;;;13.66;100.00;98217.91;5033867;28;20229;-71
2022/10/10 08:37:13;;;;;;;8.13;6.33;;;;;;;13.67;100.00;98223.03;5033806;28;20206;-71
2022/10/10 08:39:40;;;;;;;6.97;5.77;;;;;;;13.74;100.00;98217.56;5034082;28;20214;-71
2022/10/10 08:42:07;;;;;;;10.93;6.57;;;;;;;13.83;100.00;98222.28;5034368;28;20642;-71
2022/10/10 08:44:45;;;;;;;9.27;5.87;;;;;;;13.87;100.00;98226.13;5033999;28;20209;-71
2022/10/10 08:47:17;;;;;;;10.13;6.50;;;;;;;14.02;100.00;98222.97;5033746;28;20240;-71
2022/10/10 08:49:53;;;;;;;12.67;6.77;;;;;;;14.24;100.00;98218.63;5033593;28;20233;-71
2022/10/10 08:52:31;;;;;;;9.93;6.93;;;;;;;14.33;100.00;98212.63;5034307;28;20228;-69
2022/10/10 08:55:02;;;;;;;12.17;6.50;;;;;;;14.44;100.00;98211.78;5033796;28;20198;-69
2022/10/10 08:57:48;;;;;;;7.90;6.27;;;;;;;14.54;100.00;98209.31;5033069;28;20665;-74
2022/10/10 09:00:22;;;;;;;8.07;6.37;;;;;;;14.74;100.00;98215.00;5033391;28;20731;-74
2022/10/10 09:02:48;;;;;;;8.77;5.57;;;;;;;14.98;100.00;98208.47;5033892;28;20202;-73
2022/10/10 09:05:18;;;;;;;13.13;6.20;;;;;;;15.28;99.96;98214.28;5033566;28;20216;-73
2022/10/10 09:07:53;;;;;;;9.27;5.67;;;;;;;15.43;96.82;98209.19;5033643;28;20232;-73
2022/10/10 09:10:33;;;;;;;9.63;5.30;;;;;;;15.41;98.47;98216.66;5033534;28;20255;-74
2022/10/10 09:13:07;;;;;;;10.43;5.57;;;;;;;15.32;99.71;98215.44;5033407;28;20201;-74
2022/10/10 09:15:42;;;;;;;10.43;5.30;;;;;;;15.40;98.28;98220.41;5032452;28;20200;-73
2022/10/10 09:18:20;;;;;;;7.03;5.03;;;;;;;15.42;97.76;98220.16;5034031;28;20208;-74
2022/10/10 09:21:25;;;;;;;9.20;5.30;;;;;;;15.53;96.86;98225.44;5033649;28;20660;-73
2022/10/10 09:24:12;;;;;;;7.23;5.20;;;;;;;15.60;96.77;98227.94;5024006;28;20205;-74
2022/10/10 09:26:48;;;;;;;8.37;5.07;;;;;;;15.76;96.02;98232.44;5032351;28;20544;-74
2022/10/10 09:29:27;;;;;;;10.47;6.07;;;;;;;15.82;95.04;98224.22;5032595;28;20232;-73
2022/10/10 09:32:04;;;;;;;10.67;5.83;;;;;;;15.94;97.52;98232.16;5033144;28;20190;-74
2022/10/10 09:34:30;;;;;;;12.80;5.70;;;;;;;15.78;97.17;98233.81;5034314;28;20284;-73
2022/10/10 09:36:59;;;;;;;15.53;6.40;;;;;;;16.08;96.05;98239.59;5033200;28;20210;-74
2022/10/10 09:39:50;;;;;;;15.10;6.50;;;;;;;16.28;94.59;98239.81;5032606;28;20252;-74
2022/10/10 09:42:22;;;;;;;8.37;6.20;;;;;;;16.38;92.73;98236.47;5032806;28;20190;-74
2022/10/10 09:44:48;;;;;;;9.80;5.63;;;;;;;16.71;90.48;98238.97;5033208;28;20564;-73
2022/10/10 09:47:16;;;;;;;10.67;5.73;;;;;;;16.86;90.82;98237.25;5033070;28;20202;-73
2022/10/10 09:49:44;;;;;;;6.63;5.50;;;;;;;17.11;86.94;98234.81;5032693;28;20222;-73
2022/10/10 09:52:31;;;;;;;13.37;5.23;;;;;;;17.12;87.12;98239.13;5033184;28;20235;-72
2022/10/10 09:55:05;;;;;;;13.17;5.77;;;;;;;17.04;88.57;98234.22;5033182;28;20248;-72
2022/10/10 09:57:41;;;;;;;10.00;6.23;;;;;;;17.18;88.42;98232.72;5032683;28;20628;-72
2022/10/10 10:00:25;;;;;;;9.53;5.70;;;;;;;17.20;87.11;98232.47;5033249;28;20557;-72
2022/10/10 10:03:18;;;;;;;9.23;5.97;;;;;;;17.21;86.21;98240.28;5032634;28;20189;-72
2022/10/10 10:05:58;;;;;;;10.30;6.20;;;;;;;17.34;84.36;98244.38;5032810;28;20194;-72
2022/10/10 10:08:26;;;;;;;9.30;6.30;;;;;;;17.02;87.46;98241.72;5031791;28;20217;-73
2022/10/10 10:10:56;;;;;;;7.83;5.93;;;;;;;17.01;87.62;98241.97;5033080;28;20233;-72
2022/10/10 10:13:27;;;;;;;8.33;5.60;;;;;;;16.95;88.30;98237.59;5032864;28;20252;-73
2022/10/10 10:16:02;;;;;;;12.27;5.70;;;;;;;16.90;89.17;98241.06;5032523;28;20201;-72
2022/10/10 10:18:29;;;;;;;10.90;6.00;;;;;;;16.88;88.93;98242.38;5031653;28;20199;-73
2022/10/10 10:21:01;;;;;;;7.90;5.60;;;;;;;16.93;89.02;98242.44;5032720;28;20222;-73
2022/10/10 10:23:32;;;;;;;12.10;5.70;;;;;;;17.04;88.22;98236.06;5033014;28;20206;-72
2022/10/10 10:26:06;;;;;;;12.50;6.30;;;;;;;16.96;89.31;98240.03;5032979;28;20212;-72
2022/10/10 10:28:40;;;;;;;6.80;5.43;;;;;;;17.02;89.67;98232.84;5032848;28;20221;-72
2022/10/10 10:31:18;;;;;;;8.27;5.33;;;;;;;17.14;88.68;98234.28;5032799;28;20595;-72
2022/10/10 10:33:54;;;;;;;9.63;5.20;;;;;;;17.34;88.99;98233.66;5032188;28;20634;-72
2022/10/10 10:36:45;;;;;;;11.67;5.47;;;;;;;17.41;87.23;98231.59;5033459;28;20201;-72
2022/10/10 10:39:25;;;;;;;8.33;4.40;;;;;;;17.47;87.58;98244.78;5032446;28;20548;-73
2022/10/10 10:41:56;;;;;;;8.37;4.40;;;;;;;17.64;88.24;98241.97;5032095;28;20220;-73
2022/10/10 10:44:31;;;;;;;5.67;4.50;;;;;;;17.66;88.14;98240.63;5033041;28;20234;-72
2022/10/10 10:47:11;;;;;;;8.07;4.10;;;;;;;17.82;86.08;98234.25;5034475;28;20197;-72
2022/10/10 10:49:43;;;;;;;9.00;4.60;;;;;;;18.01;86.14;98240.03;5036266;28;20209;-73
2022/10/10 10:52:28;;;;;;;5.77;4.00;;;;;;;18.01;86.61;98231.94;5036119;28;20190;-72
2022/10/10 10:55:25;;;;;;;4.87;3.23;;;;;;;17.99;85.05;98226.81;5036150;28;20186;-72
2022/10/10 10:57:57;;;;;;;6.13;3.37;;;;;;;18.02;87.34;98230.88;5034555;28;20592;-72
2022/10/10 11:00:24;;;;;;;3.00;2.33;;;;;;;18.21;85.04;98229.34;5035862;28;20236;-72
2022/10/10 11:03:22;;;;;;;5.93;2.97;;;;;;;18.21;84.18;98223.94;5035888;28;20205;-73
2022/10/10 11:06:20;;;;;;;3.87;2.20;;;;;;;18.62;80.01;98215.78;5036228;28;20268;-73
2022/10/10 11:09:00;;;;;;;5.07;2.33;;;;;;;18.78;79.96;98224.69;5035764;28;20232;-72
2022/10/10 11:11:35;;;;;;;3.83;2.00;;;;;;;18.90;78.29;98226.06;5035857;28;20222;-72
2022/10/10 11:14:43;;;;;;;6.43;2.30;;;;;;;18.89;77.60;98216.38;5035902;28;20304;-70
2022/10/10 11:17:20;;;;;;;6.77;2.33;;;;;;;18.91;76.26;98218.78;5035733;28;20194;-70
2022/10/10 11:19:56;;;;;;;6.03;2.20;;;;;;;19.06;78.67;98214.22;5035054;28;20221;-71
2022/10/10 11:22:28;;;;;;;5.17;2.20;;;;;;;19.30;76.25;98206.41;5035367;28;20194;-70
2022/10/10 11:25:22;;;;;;;6.27;2.30;;;;;;;19.32;74.57;98201.59;5035303;28;20212;-70
2022/10/10 11:27:55;;;;;;;6.03;1.87;;;;;;;19.29;75.44;98205.63;5035347;28;20197;-72
2022/10/10 11:30:26;;;;;;;4.43;2.30;;;;;;;19.45;74.00;98203.72;5034985;28;20717;-70
2022/10/10 11:33:07;;;;;;;4.20;2.20;;;;;;;19.44;74.21;98202.09;5034130;28;20200;-72
2022/10/10 11:35:42;;;;;;;8.03;2.30;;;;;;;19.39;73.18;98200.22;5035497;28;20194;-72
2022/10/10 11:38:31;;;;;;;6.97;2.20;;;;;;;19.43;71.87;98197.78;5044590;28;20201;-71
2022/10/10 11:41:03;;;;;;;4.40;2.23;;;;;;;19.39;72.35;98204.78;5054873;28;20233;-71